createdAt,value
2018-06-17T00:02:07.481Z,95.50
2018-06-17T00:04:35.041Z,95.00
2018-06-17T00:07:02.620Z,95.00
2018-06-17T00:09:30.222Z,94.60
2018-06-17T00:11:57.745Z,94.70
2018-06-17T00:14:25.298Z,94.50
2018-06-17T00:16:52.849Z,94.60
2018-06-17T00:19:27.206Z,94.30
2018-06-17T00:21:55.501Z,94.30
2018-06-17T00:24:23.068Z,94.50
2018-06-17T00:26:50.678Z,94.10
2018-06-17T00:29:18.258Z,94.20
2018-06-17T00:31:46.129Z,93.80
2018-06-17T00:34:13.680Z,94.10
2018-06-17T00:36:41.378Z,93.90
2018-06-17T00:39:10.562Z,94.30
2018-06-17T00:41:38.173Z,93.70
2018-06-17T00:44:05.757Z,93.60
2018-06-17T00:46:33.722Z,94.00
2018-06-17T00:49:01.289Z,93.30
2018-06-17T00:51:28.830Z,93.50
2018-06-17T00:53:56.422Z,93.90
2018-06-17T00:56:24.408Z,93.40
2018-06-17T00:58:52.136Z,93.50
2018-06-17T01:01:19.833Z,93.50
2018-06-17T01:03:47.372Z,93.40
2018-06-17T01:06:14.918Z,93.60
2018-06-17T01:08:42.463Z,93.70
2018-06-17T01:11:10.016Z,93.40
2018-06-17T01:13:37.608Z,93.70
2018-06-17T01:16:05.241Z,93.70
2018-06-17T01:18:32.771Z,93.60
2018-06-17T01:21:00.437Z,93.40
2018-06-17T01:23:27.961Z,93.30
2018-06-17T01:25:55.514Z,93.20
2018-06-17T01:28:23.049Z,93.30
2018-06-17T01:30:50.645Z,93.70
2018-06-17T01:33:18.184Z,93.60
2018-06-17T01:35:45.881Z,93.30
2018-06-17T01:38:13.442Z,94.10
2018-06-17T01:40:41.145Z,94.40
2018-06-17T01:43:08.681Z,94.60
2018-06-17T01:45:36.221Z,94.90
2018-06-17T01:48:03.770Z,95.30
2018-06-17T01:50:31.339Z,95.50
2018-06-17T01:52:58.893Z,95.50
2018-06-17T01:55:26.885Z,95.90
2018-06-17T01:57:54.421Z,95.80
2018-06-17T02:00:21.993Z,95.70
2018-06-17T02:02:49.650Z,95.90
2018-06-17T02:05:22.841Z,95.70
2018-06-17T02:07:55.912Z,95.70
2018-06-17T02:10:29.833Z,95.80
2018-06-17T02:12:58.409Z,96.00
2018-06-17T02:15:25.974Z,96.10
2018-06-17T02:17:53.508Z,96.30
2018-06-17T02:20:21.069Z,96.30
2018-06-17T02:22:48.601Z,96.30
2018-06-17T02:25:16.132Z,96.20
2018-06-17T02:27:43.669Z,96.10
2018-06-17T02:30:11.257Z,96.00
2018-06-17T02:32:38.833Z,95.80
2018-06-17T02:35:06.396Z,95.80
2018-06-17T02:37:33.945Z,96.10
2018-06-17T02:40:01.478Z,96.20
2018-06-17T02:42:29.203Z,96.40
2018-06-17T02:47:07.225Z,96.10
2018-06-17T02:49:37.496Z,96.30
2018-06-17T02:52:11.801Z,95.90
2018-06-17T02:54:47.167Z,95.90
2018-06-17T02:57:15.932Z,95.80
2018-06-17T02:59:43.978Z,96.00
2018-06-17T03:02:12.682Z,96.00
2018-06-17T03:04:41.209Z,96.20
2018-06-17T03:07:08.769Z,96.30
2018-06-17T03:09:36.305Z,96.60
2018-06-17T03:12:06.055Z,96.60
2018-06-17T03:14:33.581Z,96.40
2018-06-17T03:17:01.219Z,96.60
2018-06-17T03:19:28.741Z,96.50
2018-06-17T03:21:56.277Z,96.30
2018-06-17T03:24:29.377Z,96.30
2018-06-17T03:27:02.682Z,96.20
2018-06-17T03:29:35.769Z,95.80
2018-06-17T03:32:09.197Z,95.80
2018-06-17T03:34:36.781Z,96.00
2018-06-17T03:37:04.512Z,95.70
2018-06-17T03:39:32.057Z,95.70
2018-06-17T03:41:59.632Z,96.00
2018-06-17T03:44:27.180Z,95.50
2018-06-17T03:47:02.985Z,95.60
2018-06-17T03:49:30.622Z,95.60
2018-06-17T03:51:58.166Z,95.90
2018-06-17T03:54:25.689Z,95.90
2018-06-17T03:56:53.288Z,95.80
2018-06-17T03:59:20.805Z,96.00
2018-06-17T04:01:48.916Z,95.80
2018-06-17T04:04:16.476Z,95.40
2018-06-17T04:06:44.036Z,95.20
2018-06-17T04:09:11.762Z,95.60
2018-06-17T04:11:39.308Z,95.40
2018-06-17T04:14:07.245Z,94.80
2018-06-17T04:16:34.869Z,95.00
2018-06-17T04:19:02.429Z,94.50
2018-06-17T04:21:29.963Z,94.60
2018-06-17T04:23:57.511Z,94.70
2018-06-17T04:26:25.035Z,94.40
2018-06-17T04:28:52.958Z,94.30
2018-06-17T04:31:20.976Z,94.60
2018-06-17T04:33:48.524Z,94.70
2018-06-17T04:36:16.115Z,94.70
2018-06-17T04:38:43.689Z,94.60
2018-06-17T04:41:11.234Z,94.90
2018-06-17T04:43:39.546Z,94.70
2018-06-17T04:46:07.076Z,95.10
2018-06-17T04:48:34.740Z,94.90
2018-06-17T04:51:02.307Z,94.40
2018-06-17T04:53:30.017Z,94.10
2018-06-17T04:55:57.529Z,93.70
2018-06-17T04:58:25.054Z,93.90
2018-06-17T05:00:52.595Z,94.20
2018-06-17T05:03:20.136Z,94.10
2018-06-17T05:05:47.736Z,93.80
2018-06-17T05:08:15.317Z,93.80
2018-06-17T05:10:42.880Z,93.20
2018-06-17T05:13:10.545Z,93.50
2018-06-17T05:15:38.086Z,93.20
2018-06-17T05:18:05.793Z,93.40
2018-06-17T05:20:33.345Z,93.60
2018-06-17T05:23:01.600Z,94.00
2018-06-17T05:25:29.126Z,93.40
2018-06-17T05:27:56.684Z,93.70
2018-06-17T05:30:24.217Z,93.50
2018-06-17T05:32:55.041Z,93.50
2018-06-17T05:35:22.958Z,93.60
2018-06-17T05:37:50.576Z,93.30
2018-06-17T05:40:18.153Z,93.40
2018-06-17T05:42:45.710Z,93.40
2018-06-17T05:45:13.266Z,92.90
2018-06-17T05:47:40.825Z,92.40
2018-06-17T05:50:11.937Z,92.90
2018-06-17T05:52:39.533Z,91.60
2018-06-17T05:55:08.293Z,91.90
2018-06-17T05:57:35.938Z,91.60
2018-06-17T06:00:03.697Z,91.40
2018-06-17T06:02:31.213Z,91.60
2018-06-17T06:04:58.757Z,91.40
2018-06-17T06:07:30.280Z,91.90
2018-06-17T06:09:58.014Z,92.00
2018-06-17T06:12:25.638Z,91.90
2018-06-17T06:14:53.509Z,91.80
2018-06-17T06:17:21.081Z,92.20
2018-06-17T06:19:49.289Z,92.60
2018-06-17T06:22:18.408Z,92.20
2018-06-17T06:24:46.097Z,91.90
2018-06-17T06:27:14.516Z,91.70
2018-06-17T06:29:42.073Z,92.00
2018-06-17T06:32:09.633Z,91.10
2018-06-17T06:34:37.477Z,90.60
2018-06-17T06:37:05.186Z,90.90
2018-06-17T06:39:33.589Z,91.40
2018-06-17T06:42:01.252Z,91.30
2018-06-17T06:44:28.789Z,90.40
2018-06-17T06:46:57.278Z,90.00
2018-06-17T06:49:24.854Z,88.70
2018-06-17T06:51:52.389Z,87.80
2018-06-17T06:54:19.914Z,89.00
2018-06-17T06:56:47.648Z,88.70
2018-06-17T06:59:15.177Z,87.80
2018-06-17T07:01:54.373Z,87.60
2018-06-17T07:04:34.520Z,87.20
2018-06-17T07:07:13.833Z,86.50
2018-06-17T07:09:52.838Z,84.70
2018-06-17T07:12:20.536Z,85.60
2018-06-17T07:14:48.126Z,85.20
2018-06-17T07:17:27.841Z,82.80
2018-06-17T07:19:56.324Z,82.80
2018-06-17T07:22:24.007Z,83.80
2018-06-17T07:24:51.553Z,83.80
2018-06-17T07:27:30.282Z,82.90
2018-06-17T07:29:57.886Z,83.80
2018-06-17T07:32:28.577Z,83.30
2018-06-17T07:34:56.161Z,82.70
2018-06-17T07:37:23.733Z,82.60
2018-06-17T07:40:55.350Z,83.50
2018-06-17T07:43:22.890Z,81.60
2018-06-17T07:45:50.455Z,81.60
2018-06-17T07:49:30.506Z,80.20
2018-06-17T07:53:12.394Z,81.30
2018-06-17T07:55:39.934Z,79.90
2018-06-17T07:58:07.473Z,79.90
2018-06-17T08:00:35.077Z,78.80
2018-06-17T08:03:02.942Z,77.00
2018-06-17T08:05:30.542Z,77.30
2018-06-17T08:07:58.061Z,76.00
2018-06-17T08:10:25.645Z,76.80
2018-06-17T08:12:53.169Z,77.30
2018-06-17T08:15:20.696Z,75.60
2018-06-17T08:17:48.932Z,76.40
2018-06-17T08:20:31.311Z,74.70
2018-06-17T08:22:59.040Z,78.20
2018-06-17T08:25:26.638Z,75.10
2018-06-17T08:27:55.202Z,73.30
2018-06-17T08:30:25.662Z,74.70
2018-06-17T08:32:53.328Z,74.80
2018-06-17T08:35:20.840Z,74.30
2018-06-17T08:37:48.373Z,74.60
2018-06-17T08:40:16.189Z,75.30
2018-06-17T08:42:43.729Z,75.80
2018-06-17T08:45:11.341Z,74.80
2018-06-17T08:47:40.061Z,77.30
2018-06-17T08:50:07.612Z,77.30
2018-06-17T08:52:35.153Z,74.10
2018-06-17T08:55:02.775Z,76.30
2018-06-17T08:57:30.388Z,75.70
2018-06-17T08:59:57.917Z,73.50
2018-06-17T09:02:25.492Z,74.50
2018-06-17T09:04:53.160Z,71.90
2018-06-17T09:07:20.718Z,73.80
2018-06-17T09:09:48.352Z,73.80
2018-06-17T09:12:15.874Z,73.00
2018-06-17T09:14:43.486Z,73.80
2018-06-17T09:17:11.014Z,71.50
2018-06-17T09:19:38.578Z,70.20
2018-06-17T09:22:06.086Z,71.10
2018-06-17T09:24:33.739Z,70.60
2018-06-17T09:27:02.078Z,69.20
2018-06-17T09:29:29.686Z,69.00
2018-06-17T09:31:57.283Z,71.20
2018-06-17T09:34:24.832Z,70.60
2018-06-17T09:36:55.284Z,71.30
2018-06-17T09:39:25.792Z,70.70
2018-06-17T09:41:53.341Z,71.40
2018-06-17T09:44:20.895Z,70.00
2018-06-17T09:46:48.441Z,68.90
2018-06-17T09:49:16.587Z,70.80
2018-06-17T09:51:45.006Z,70.60
2018-06-17T09:54:12.537Z,70.40
2018-06-17T09:56:40.246Z,70.60
2018-06-17T09:59:07.799Z,68.80
2018-06-17T10:01:35.428Z,69.50
2018-06-17T10:04:03.026Z,69.20
2018-06-17T10:06:30.698Z,70.60
2018-06-17T10:08:58.401Z,70.40
2018-06-17T10:11:25.988Z,69.30
2018-06-17T10:13:53.639Z,67.80
2018-06-17T10:16:21.224Z,67.80
2018-06-17T10:18:48.810Z,67.60
2018-06-17T10:21:16.405Z,67.80
2018-06-17T10:23:43.925Z,67.70
2018-06-17T10:26:11.501Z,67.30
2018-06-17T10:28:39.117Z,65.50
2018-06-17T10:31:07.101Z,65.80
2018-06-17T10:33:35.421Z,67.00
2018-06-17T10:36:02.949Z,65.50
2018-06-17T10:38:30.801Z,64.60
2018-06-17T10:40:58.517Z,64.00
2018-06-17T10:43:27.662Z,65.80
2018-06-17T10:45:55.239Z,64.30
2018-06-17T10:48:22.821Z,64.30
2018-06-17T10:50:50.409Z,66.00
2018-06-17T10:53:18.068Z,67.00
2018-06-17T10:55:45.703Z,66.40
2018-06-17T10:58:13.166Z,64.60
2018-06-17T11:00:40.751Z,63.70
2018-06-17T11:03:08.317Z,62.90
2018-06-17T11:05:35.938Z,62.90
2018-06-17T11:08:04.756Z,63.90
2018-06-17T11:10:32.293Z,63.90
2018-06-17T11:13:00.241Z,64.20
2018-06-17T11:15:27.845Z,64.30
2018-06-17T11:17:55.394Z,62.90
2018-06-17T11:20:22.958Z,65.10
2018-06-17T11:22:51.988Z,64.50
2018-06-17T11:25:19.638Z,63.70
2018-06-17T11:27:47.257Z,63.90
2018-06-17T11:30:14.802Z,63.30
2018-06-17T11:32:42.433Z,64.60
2018-06-17T11:35:09.976Z,64.80
2018-06-17T11:37:37.609Z,66.00
2018-06-17T11:40:05.172Z,65.40
2018-06-17T11:42:32.826Z,67.00
2018-06-17T11:45:01.213Z,66.50
2018-06-17T11:47:28.754Z,67.90
2018-06-17T11:49:56.341Z,69.70
2018-06-17T11:52:23.857Z,70.10
2018-06-17T11:54:51.508Z,70.40
2018-06-17T11:57:19.079Z,69.40
2018-06-17T11:59:46.670Z,70.70
2018-06-17T12:02:14.145Z,70.30
2018-06-17T12:04:41.684Z,70.30
2018-06-17T12:07:09.336Z,71.50
2018-06-17T12:09:36.890Z,69.50
2018-06-17T12:12:04.615Z,71.30
2018-06-17T12:14:32.141Z,69.50
2018-06-17T12:16:59.685Z,69.90
2018-06-17T12:19:27.177Z,68.30
2018-06-17T12:21:54.733Z,68.30
2018-06-17T12:24:22.281Z,68.40
2018-06-17T12:26:49.809Z,68.40
2018-06-17T12:29:17.361Z,69.50
2018-06-17T12:31:44.961Z,68.60
2018-06-17T12:34:12.540Z,70.00
2018-06-17T12:36:40.077Z,70.10
2018-06-17T12:39:09.265Z,68.80
2018-06-17T12:41:36.873Z,67.80
2018-06-17T12:44:04.501Z,68.80
2018-06-17T12:46:32.066Z,69.70
2018-06-17T12:49:00.226Z,69.00
2018-06-17T12:51:27.785Z,68.70
2018-06-17T12:53:55.309Z,69.70
2018-06-17T12:56:22.844Z,71.10
2018-06-17T12:58:50.368Z,69.60
2018-06-17T13:01:17.920Z,70.20
2018-06-17T13:03:45.517Z,70.90
2018-06-17T13:06:13.069Z,71.60
2018-06-17T13:08:40.725Z,70.90
2018-06-17T13:11:08.344Z,68.90
2018-06-17T13:13:35.861Z,69.80
2018-06-17T13:16:03.458Z,69.10
2018-06-17T13:18:34.089Z,69.20
2018-06-17T13:21:01.812Z,70.20
2018-06-17T13:23:29.337Z,68.10
2018-06-17T13:25:57.011Z,68.30
2018-06-17T13:28:24.529Z,67.70
2018-06-17T13:30:52.189Z,67.10
2018-06-17T13:33:19.707Z,65.60
2018-06-17T13:35:47.317Z,63.80
2018-06-17T13:38:14.894Z,62.00
2018-06-17T13:40:42.437Z,60.90
2018-06-17T13:43:09.985Z,61.60
2018-06-17T13:45:37.525Z,62.30
2018-06-17T13:48:05.157Z,63.50
2018-06-17T13:50:32.789Z,64.50
2018-06-17T13:53:00.353Z,63.20
2018-06-17T13:55:27.921Z,62.20
2018-06-17T13:57:55.502Z,63.00
2018-06-17T14:00:23.045Z,61.20
2018-06-17T14:02:50.621Z,62.50
2018-06-17T14:05:18.174Z,62.40
2018-06-17T14:07:45.967Z,61.70
2018-06-17T14:10:13.504Z,62.60
2018-06-17T14:12:41.181Z,64.40
2018-06-17T14:15:09.213Z,64.80
2018-06-17T14:17:36.809Z,65.10
2018-06-17T14:20:05.454Z,64.30
2018-06-17T14:22:33.033Z,64.10
2018-06-17T14:25:00.590Z,63.20
2018-06-17T14:27:29.013Z,63.70
2018-06-17T14:29:56.721Z,63.30
2018-06-17T14:32:24.294Z,63.30
2018-06-17T14:34:51.952Z,63.00
2018-06-17T14:37:19.938Z,65.80
2018-06-17T14:39:47.533Z,64.30
2018-06-17T14:42:21.037Z,64.10
2018-06-17T14:44:54.261Z,63.60
2018-06-17T14:47:27.442Z,63.30
2018-06-17T14:50:00.576Z,64.80
2018-06-17T14:52:33.877Z,63.00
2018-06-17T14:55:04.177Z,63.50
2018-06-17T14:57:32.333Z,64.10
2018-06-17T14:59:59.880Z,64.10
2018-06-17T15:02:27.478Z,66.10
2018-06-17T15:04:55.044Z,67.30
2018-06-17T15:07:22.626Z,67.30
2018-06-17T15:09:51.650Z,67.80
2018-06-17T15:12:19.260Z,67.80
2018-06-17T15:14:46.797Z,68.80
2018-06-17T15:17:14.342Z,70.00
2018-06-17T15:19:41.893Z,70.90
2018-06-17T15:22:09.451Z,71.30
2018-06-17T15:24:37.005Z,71.10
2018-06-17T15:27:04.706Z,70.80
2018-06-17T15:29:32.266Z,70.40
2018-06-17T15:32:05.309Z,69.40
2018-06-17T15:34:38.545Z,70.40
2018-06-17T15:37:11.899Z,68.60
2018-06-17T15:39:44.962Z,67.80
2018-06-17T15:42:12.485Z,68.00
2018-06-17T15:44:41.138Z,66.70
2018-06-17T15:47:08.690Z,65.90
2018-06-17T15:49:36.293Z,64.70
2018-06-17T15:52:03.856Z,65.30
2018-06-17T15:54:31.422Z,65.10
2018-06-17T15:56:59.086Z,65.80
2018-06-17T15:59:26.624Z,66.10
2018-06-17T16:01:54.309Z,64.40
2018-06-17T16:04:21.880Z,62.20
2018-06-17T16:06:49.498Z,63.00
2018-06-17T16:09:17.061Z,63.70
2018-06-17T16:11:50.313Z,62.70
2018-06-17T16:14:25.006Z,62.70
2018-06-17T16:16:58.857Z,63.40
2018-06-17T16:19:32.977Z,62.90
2018-06-17T16:22:00.856Z,63.50
2018-06-17T16:24:28.530Z,63.60
2018-06-17T16:26:56.254Z,65.80
2018-06-17T16:29:23.815Z,64.40
2018-06-17T16:31:51.704Z,64.60
2018-06-17T16:34:19.353Z,64.30
2018-06-17T16:36:46.890Z,64.60
2018-06-17T16:39:14.569Z,64.30
2018-06-17T16:41:42.233Z,64.10
2018-06-17T16:44:10.527Z,64.40
2018-06-17T16:46:38.696Z,64.40
2018-06-17T16:49:06.478Z,63.30
2018-06-17T16:51:39.740Z,64.70
2018-06-17T16:54:13.201Z,64.40
2018-06-17T16:56:46.344Z,64.70
2018-06-17T16:59:19.778Z,66.00
2018-06-17T17:01:48.441Z,65.80
2018-06-17T17:04:16.032Z,65.80
2018-06-17T17:06:43.618Z,65.40
2018-06-17T17:09:11.482Z,65.30
2018-06-17T17:11:39.825Z,65.70
2018-06-17T17:14:07.677Z,66.00
2018-06-17T17:16:35.673Z,66.30
2018-06-17T17:19:03.624Z,66.60
2018-06-17T17:21:31.208Z,66.40
2018-06-17T17:23:59.535Z,67.20
2018-06-17T17:26:27.510Z,65.60
2018-06-17T17:28:55.401Z,65.50
2018-06-17T17:31:23.042Z,64.90
2018-06-17T17:33:56.497Z,64.50
2018-06-17T17:41:33.239Z,63.60
2018-06-17T17:44:00.782Z,64.20
2018-06-17T17:46:34.086Z,64.30
2018-06-17T17:49:01.629Z,64.80
2018-06-17T17:51:30.413Z,65.20
2018-06-17T17:53:58.516Z,64.80
2018-06-17T17:56:26.213Z,64.20
2018-06-17T17:58:54.105Z,64.30
2018-06-17T18:01:21.673Z,65.10
2018-06-17T18:03:49.498Z,64.50
2018-06-17T18:06:17.062Z,64.00
2018-06-17T18:11:13.064Z,64.90
2018-06-17T18:13:41.333Z,65.10
2018-06-17T18:16:08.906Z,65.20
2018-06-17T18:18:37.151Z,66.00
2018-06-17T18:21:04.849Z,66.70
2018-06-17T18:28:38.557Z,65.60
2018-06-17T18:31:06.635Z,65.70
2018-06-17T18:33:39.726Z,65.30
2018-06-17T18:36:10.981Z,66.20
2018-06-17T18:38:40.273Z,66.10
2018-06-17T18:41:09.705Z,68.30
2018-06-17T18:43:37.444Z,68.10
2018-06-17T18:46:05.055Z,68.50
2018-06-17T18:51:00.113Z,69.50
2018-06-17T18:53:27.681Z,69.20
2018-06-17T18:55:55.245Z,69.60
2018-06-17T18:58:23.188Z,69.20
2018-06-17T19:00:51.249Z,69.80
2018-06-17T19:03:19.238Z,70.30
2018-06-17T19:05:46.764Z,70.00
2018-06-17T19:08:21.005Z,70.10
2018-06-17T19:10:54.097Z,70.60
2018-06-17T19:13:27.333Z,70.70
2018-06-17T19:16:00.921Z,71.20
2018-06-17T19:18:28.736Z,71.60
2018-06-17T19:20:57.164Z,71.50
2018-06-17T19:23:24.780Z,71.90
2018-06-17T19:25:52.634Z,72.50
2018-06-17T19:28:20.437Z,72.70
2018-06-17T19:30:47.997Z,72.60
2018-06-17T19:33:15.544Z,72.90
2018-06-17T19:35:43.090Z,73.20
2018-06-17T19:38:10.933Z,73.80
2018-06-17T19:40:38.505Z,74.10
2018-06-17T19:43:06.130Z,74.10
2018-06-17T19:45:33.851Z,75.00
2018-06-17T19:48:01.602Z,75.00
2018-06-17T19:50:34.806Z,75.10
2018-06-17T19:53:07.947Z,74.60
2018-06-17T19:55:41.005Z,74.40
2018-06-17T19:58:14.233Z,74.60
2018-06-17T20:00:44.746Z,74.40
2018-06-17T20:03:12.358Z,75.60
2018-06-17T20:05:40.061Z,76.10
2018-06-17T20:08:07.617Z,75.50
2018-06-17T20:10:35.170Z,75.70
2018-06-17T20:13:02.730Z,76.30
2018-06-17T20:15:30.362Z,75.70
2018-06-17T20:17:57.937Z,76.00
2018-06-17T20:20:25.480Z,76.30
2018-06-17T20:22:53.026Z,76.70
2018-06-17T20:25:20.643Z,76.90
2018-06-17T20:27:48.706Z,76.50
2018-06-17T20:30:16.337Z,76.50
2018-06-17T20:32:50.097Z,76.60
2018-06-17T20:35:23.341Z,76.70
2018-06-17T20:37:56.587Z,77.00
2018-06-17T20:40:30.628Z,76.70
2018-06-17T20:43:04.492Z,76.90
2018-06-17T20:45:32.110Z,76.50
2018-06-17T20:48:00.546Z,76.10
2018-06-17T20:50:28.245Z,76.10
2018-06-17T20:52:55.823Z,75.60
2018-06-17T20:55:23.402Z,76.40
2018-06-17T20:57:50.930Z,75.60
2018-06-17T21:00:18.772Z,75.70
2018-06-17T21:02:46.633Z,75.50
2018-06-17T21:05:14.193Z,75.70
2018-06-17T21:07:41.786Z,76.10
2018-06-17T21:10:09.355Z,76.20
2018-06-17T21:15:09.793Z,77.90
2018-06-17T21:17:37.720Z,77.00
2018-06-17T21:20:10.805Z,77.80
2018-06-17T21:22:44.065Z,77.60
2018-06-17T21:25:17.180Z,77.20
2018-06-17T21:27:45.348Z,77.70
2018-06-17T21:30:14.047Z,78.70
2018-06-17T21:32:41.618Z,79.00
2018-06-17T21:35:10.486Z,79.30
2018-06-17T21:37:38.037Z,80.10
2018-06-17T21:40:05.789Z,80.40
2018-06-17T21:42:33.353Z,80.90
2018-06-17T21:45:00.925Z,81.00
2018-06-17T21:47:28.485Z,81.30
2018-06-17T21:49:56.021Z,81.30
2018-06-17T21:52:23.609Z,81.30
2018-06-17T21:54:51.157Z,81.90
2018-06-17T21:57:18.754Z,81.90
2018-06-17T21:59:47.102Z,81.60
2018-06-17T22:02:14.682Z,82.00
2018-06-17T22:04:42.284Z,82.10
2018-06-17T22:07:11.553Z,82.40
2018-06-17T22:09:44.801Z,83.00
2018-06-17T22:12:18.069Z,82.60
2018-06-17T22:14:51.497Z,82.70
2018-06-17T22:17:24.625Z,82.50
2018-06-17T22:19:53.905Z,82.70
2018-06-17T22:22:21.501Z,82.90
2018-06-17T22:24:49.040Z,82.90
2018-06-17T22:27:16.599Z,83.20
2018-06-17T22:29:44.625Z,83.20
2018-06-17T22:32:12.361Z,82.90
2018-06-17T22:34:40.047Z,82.70
2018-06-17T22:37:08.288Z,82.90
2018-06-17T22:39:37.148Z,82.80
2018-06-17T22:42:04.825Z,83.10
2018-06-17T22:44:32.372Z,83.50
2018-06-17T22:47:00.729Z,83.30
2018-06-17T22:49:28.277Z,83.30
2018-06-17T22:51:55.810Z,83.20
2018-06-17T22:54:34.702Z,83.60
2018-06-17T22:57:07.878Z,83.50
2018-06-17T22:59:41.771Z,83.70
2018-06-17T23:02:14.873Z,83.90
2018-06-17T23:04:48.106Z,84.20
2018-06-17T23:07:21.130Z,84.40
2018-06-17T23:09:50.497Z,84.30
2018-06-17T23:12:18.043Z,84.80
2018-06-17T23:14:45.625Z,85.00
2018-06-17T23:17:13.301Z,84.60
2018-06-17T23:19:40.848Z,84.90
2018-06-17T23:22:08.409Z,85.10
2018-06-17T23:24:35.969Z,86.00
2018-06-17T23:27:03.705Z,85.50
2018-06-17T23:29:31.253Z,85.70
2018-06-17T23:31:59.400Z,85.80
2018-06-17T23:34:26.965Z,85.80
2018-06-17T23:36:54.485Z,85.70
2018-06-17T23:41:49.505Z,86.70
2018-06-17T23:44:17.060Z,85.80
2018-06-17T23:46:50.338Z,85.60
2018-06-17T23:49:23.577Z,85.10
2018-06-17T23:51:56.721Z,85.00
2018-06-17T23:54:29.916Z,85.20
2018-06-17T23:56:57.511Z,85.50
2018-06-17T23:59:25.240Z,86.00
